sensor_id;sensor_type;location;lat;lon;timestamp;temperature;humidity
44729;DHT22;30457;53.590;9.922;2023-11-19T00:00:23;9.90;63.30
44729;DHT22;30457;53.590;9.922;2023-11-19T00:04:49;9.80;63.20
44729;DHT22;30457;53.590;9.922;2023-11-19T00:09:14;9.90;63.30
44729;DHT22;30457;53.590;9.922;2023-11-19T00:13:42;9.90;63.50
44729;DHT22;30457;53.590;9.922;2023-11-19T00:18:07;9.90;63.50
44729;DHT22;30457;53.590;9.922;2023-11-19T00:22:33;9.90;63.50
44729;DHT22;30457;53.590;9.922;2023-11-19T00:27:01;9.90;63.70
44729;DHT22;30457;53.590;9.922;2023-11-19T00:31:27;9.90;63.60
44729;DHT22;30457;53.590;9.922;2023-11-19T00:35:53;9.90;63.50
44729;DHT22;30457;53.590;9.922;2023-11-19T00:40:19;9.90;63.50
44729;DHT22;30457;53.590;9.922;2023-11-19T00:44:47;10.00;63.50
44729;DHT22;30457;53.590;9.922;2023-11-19T00:49:12;10.00;63.70
44729;DHT22;30457;53.590;9.922;2023-11-19T00:53:38;10.00;63.70
44729;DHT22;30457;53.590;9.922;2023-11-19T00:58:03;10.00;63.70
44729;DHT22;30457;53.590;9.922;2023-11-19T01:02:29;10.00;63.60
44729;DHT22;30457;53.590;9.922;2023-11-19T01:06:55;10.00;63.50
44729;DHT22;30457;53.590;9.922;2023-11-19T01:11:21;10.00;63.50
44729;DHT22;30457;53.590;9.922;2023-11-19T01:15:48;10.00;63.50
44729;DHT22;30457;53.590;9.922;2023-11-19T01:20:14;10.00;63.70
44729;DHT22;30457;53.590;9.922;2023-11-19T01:24:40;10.00;63.60
44729;DHT22;30457;53.590;9.922;2023-11-19T01:29:05;10.00;63.70
44729;DHT22;30457;53.590;9.922;2023-11-19T01:33:31;10.00;63.70
44729;DHT22;30457;53.590;9.922;2023-11-19T01:37:57;10.00;63.80
44729;DHT22;30457;53.590;9.922;2023-11-19T01:42:22;10.10;63.80
44729;DHT22;30457;53.590;9.922;2023-11-19T01:46:50;10.10;63.90
44729;DHT22;30457;53.590;9.922;2023-11-19T01:51:16;10.10;63.90
44729;DHT22;30457;53.590;9.922;2023-11-19T01:55:42;10.10;64.00
44729;DHT22;30457;53.590;9.922;2023-11-19T02:00:09;10.10;64.00
44729;DHT22;30457;53.590;9.922;2023-11-19T02:04:42;10.10;64.00
44729;DHT22;30457;53.590;9.922;2023-11-19T02:09:08;10.10;63.90
44729;DHT22;30457;53.590;9.922;2023-11-19T02:13:37;10.20;64.00
44729;DHT22;30457;53.590;9.922;2023-11-19T02:18:26;10.10;64.20
44729;DHT22;30457;53.590;9.922;2023-11-19T02:22:55;10.20;64.50
44729;DHT22;30457;53.590;9.922;2023-11-19T02:27:53;10.20;64.30
44729;DHT22;30457;53.590;9.922;2023-11-19T02:32:21;10.20;64.40
44729;DHT22;30457;53.590;9.922;2023-11-19T02:36:47;10.20;64.00
44729;DHT22;30457;53.590;9.922;2023-11-19T02:41:14;10.30;64.20
44729;DHT22;30457;53.590;9.922;2023-11-19T02:45:39;10.30;64.30
44729;DHT22;30457;53.590;9.922;2023-11-19T02:50:05;10.30;64.10
44729;DHT22;30457;53.590;9.922;2023-11-19T02:54:38;10.30;64.20
44729;DHT22;30457;53.590;9.922;2023-11-19T02:59:05;10.30;64.30
44729;DHT22;30457;53.590;9.922;2023-11-19T03:03:40;10.30;64.50
44729;DHT22;30457;53.590;9.922;2023-11-19T03:08:05;10.40;64.30
44729;DHT22;30457;53.590;9.922;2023-11-19T03:12:31;10.40;64.50
44729;DHT22;30457;53.590;9.922;2023-11-19T03:16:57;10.40;64.60
44729;DHT22;30457;53.590;9.922;2023-11-19T03:21:29;10.40;64.60
44729;DHT22;30457;53.590;9.922;2023-11-19T03:25:54;10.50;64.90
44729;DHT22;30457;53.590;9.922;2023-11-19T03:30:21;10.50;64.80
44729;DHT22;30457;53.590;9.922;2023-11-19T03:34:46;10.50;64.60
44729;DHT22;30457;53.590;9.922;2023-11-19T03:39:12;10.60;64.90
44729;DHT22;30457;53.590;9.922;2023-11-19T03:43:38;10.60;65.10
44729;DHT22;30457;53.590;9.922;2023-11-19T03:48:04;10.70;65.20
44729;DHT22;30457;53.590;9.922;2023-11-19T03:52:30;10.70;65.30
44729;DHT22;30457;53.590;9.922;2023-11-19T03:56:56;10.80;65.40
44729;DHT22;30457;53.590;9.922;2023-11-19T04:01:21;10.80;65.30
44729;DHT22;30457;53.590;9.922;2023-11-19T04:05:47;10.80;65.30
44729;DHT22;30457;53.590;9.922;2023-11-19T04:10:12;10.90;65.30
44729;DHT22;30457;53.590;9.922;2023-11-19T04:14:38;10.90;65.30
44729;DHT22;30457;53.590;9.922;2023-11-19T04:19:03;11.00;65.30
44729;DHT22;30457;53.590;9.922;2023-11-19T04:23:29;11.00;65.20
44729;DHT22;30457;53.590;9.922;2023-11-19T04:27:54;11.10;65.20
44729;DHT22;30457;53.590;9.922;2023-11-19T04:32:20;11.10;65.10
44729;DHT22;30457;53.590;9.922;2023-11-19T04:36:48;11.10;65.10
44729;DHT22;30457;53.590;9.922;2023-11-19T04:41:14;11.20;65.20
44729;DHT22;30457;53.590;9.922;2023-11-19T04:45:40;11.20;65.20
44729;DHT22;30457;53.590;9.922;2023-11-19T04:50:05;11.20;65.40
44729;DHT22;30457;53.590;9.922;2023-11-19T04:54:31;11.30;65.40
44729;DHT22;30457;53.590;9.922;2023-11-19T04:58:57;11.30;65.40
44729;DHT22;30457;53.590;9.922;2023-11-19T05:03:22;11.30;65.50
44729;DHT22;30457;53.590;9.922;2023-11-19T05:07:48;11.40;66.40
44729;DHT22;30457;53.590;9.922;2023-11-19T05:12:14;11.40;65.70
44729;DHT22;30457;53.590;9.922;2023-11-19T05:16:40;11.50;66.10
44729;DHT22;30457;53.590;9.922;2023-11-19T05:21:06;11.50;66.40
44729;DHT22;30457;53.590;9.922;2023-11-19T05:25:32;11.70;67.10
44729;DHT22;30457;53.590;9.922;2023-11-19T05:29:57;11.80;67.60
44729;DHT22;30457;53.590;9.922;2023-11-19T05:34:23;11.90;67.80
44729;DHT22;30457;53.590;9.922;2023-11-19T05:38:50;12.00;68.10
44729;DHT22;30457;53.590;9.922;2023-11-19T05:43:15;12.10;68.30
44729;DHT22;30457;53.590;9.922;2023-11-19T05:47:42;12.20;68.30
44729;DHT22;30457;53.590;9.922;2023-11-19T05:52:08;12.30;68.50
44729;DHT22;30457;53.590;9.922;2023-11-19T05:56:35;12.50;68.60
44729;DHT22;30457;53.590;9.922;2023-11-19T06:01:01;12.60;68.80
44729;DHT22;30457;53.590;9.922;2023-11-19T06:05:27;12.70;68.90
44729;DHT22;30457;53.590;9.922;2023-11-19T06:09:52;12.80;68.90
44729;DHT22;30457;53.590;9.922;2023-11-19T06:14:19;12.90;68.90
44729;DHT22;30457;53.590;9.922;2023-11-19T06:18:47;13.00;69.00
44729;DHT22;30457;53.590;9.922;2023-11-19T06:23:18;13.10;69.80
44729;DHT22;30457;53.590;9.922;2023-11-19T06:27:49;13.20;69.00
44729;DHT22;30457;53.590;9.922;2023-11-19T06:32:15;13.30;69.20
44729;DHT22;30457;53.590;9.922;2023-11-19T06:36:41;13.40;69.50
44729;DHT22;30457;53.590;9.922;2023-11-19T06:41:16;13.50;69.30
44729;DHT22;30457;53.590;9.922;2023-11-19T06:45:45;13.60;70.00
44729;DHT22;30457;53.590;9.922;2023-11-19T06:50:13;13.70;69.40
44729;DHT22;30457;53.590;9.922;2023-11-19T06:54:43;13.80;69.60
44729;DHT22;30457;53.590;9.922;2023-11-19T06:59:31;13.90;69.80
44729;DHT22;30457;53.590;9.922;2023-11-19T07:04:52;13.90;70.20
44729;DHT22;30457;53.590;9.922;2023-11-19T07:10:01;14.00;69.00
44729;DHT22;30457;53.590;9.922;2023-11-19T07:14:46;14.10;68.60
44729;DHT22;30457;53.590;9.922;2023-11-19T07:19:18;14.20;68.50
44729;DHT22;30457;53.590;9.922;2023-11-19T07:29:55;14.30;69.20
44729;DHT22;30457;53.590;9.922;2023-11-19T07:34:34;14.30;68.70
44729;DHT22;30457;53.590;9.922;2023-11-19T07:39:24;14.40;68.70
44729;DHT22;30457;53.590;9.922;2023-11-19T07:43:50;14.40;68.50
44729;DHT22;30457;53.590;9.922;2023-11-19T07:48:19;14.50;68.10
44729;DHT22;30457;53.590;9.922;2023-11-19T07:53:20;14.50;68.00
44729;DHT22;30457;53.590;9.922;2023-11-19T07:57:48;14.60;68.70
44729;DHT22;30457;53.590;9.922;2023-11-19T08:02:14;14.70;67.90
44729;DHT22;30457;53.590;9.922;2023-11-19T08:06:40;14.70;68.30
44729;DHT22;30457;53.590;9.922;2023-11-19T08:11:06;14.70;67.60
44729;DHT22;30457;53.590;9.922;2023-11-19T08:15:32;14.80;67.70
44729;DHT22;30457;53.590;9.922;2023-11-19T08:20:18;14.80;67.50
44729;DHT22;30457;53.590;9.922;2023-11-19T08:24:49;14.80;67.40
44729;DHT22;30457;53.590;9.922;2023-11-19T08:29:17;14.90;67.50
44729;DHT22;30457;53.590;9.922;2023-11-19T08:33:53;14.90;67.30
44729;DHT22;30457;53.590;9.922;2023-11-19T08:38:24;15.00;67.20
44729;DHT22;30457;53.590;9.922;2023-11-19T08:42:49;15.00;67.00
44729;DHT22;30457;53.590;9.922;2023-11-19T08:47:18;15.00;66.80
44729;DHT22;30457;53.590;9.922;2023-11-19T08:51:47;15.00;66.70
44729;DHT22;30457;53.590;9.922;2023-11-19T08:56:12;15.10;66.50
44729;DHT22;30457;53.590;9.922;2023-11-19T09:00:39;15.10;66.30
44729;DHT22;30457;53.590;9.922;2023-11-19T09:05:05;15.20;66.40
44729;DHT22;30457;53.590;9.922;2023-11-19T09:09:32;15.20;66.40
44729;DHT22;30457;53.590;9.922;2023-11-19T09:14:04;15.20;66.10
44729;DHT22;30457;53.590;9.922;2023-11-19T09:18:30;15.20;66.20
44729;DHT22;30457;53.590;9.922;2023-11-19T09:22:56;15.30;66.10
44729;DHT22;30457;53.590;9.922;2023-11-19T09:27:21;15.30;66.60
44729;DHT22;30457;53.590;9.922;2023-11-19T09:31:47;15.40;65.60
44729;DHT22;30457;53.590;9.922;2023-11-19T09:36:13;15.40;65.40
44729;DHT22;30457;53.590;9.922;2023-11-19T09:40:42;15.40;65.20
44729;DHT22;30457;53.590;9.922;2023-11-19T09:45:13;15.50;65.20
44729;DHT22;30457;53.590;9.922;2023-11-19T09:49:39;15.50;65.00
44729;DHT22;30457;53.590;9.922;2023-11-19T09:54:05;15.50;64.80
44729;DHT22;30457;53.590;9.922;2023-11-19T09:58:32;15.60;64.90
44729;DHT22;30457;53.590;9.922;2023-11-19T10:02:59;15.60;64.80
44729;DHT22;30457;53.590;9.922;2023-11-19T10:07:25;15.70;64.40
44729;DHT22;30457;53.590;9.922;2023-11-19T10:11:50;15.70;64.60
44729;DHT22;30457;53.590;9.922;2023-11-19T10:16:17;15.70;63.90
44729;DHT22;30457;53.590;9.922;2023-11-19T10:20:48;15.70;63.90
44729;DHT22;30457;53.590;9.922;2023-11-19T10:25:28;15.70;63.70
44729;DHT22;30457;53.590;9.922;2023-11-19T10:29:54;15.70;63.90
44729;DHT22;30457;53.590;9.922;2023-11-19T10:34:26;15.60;63.70
44729;DHT22;30457;53.590;9.922;2023-11-19T10:38:54;15.60;63.60
44729;DHT22;30457;53.590;9.922;2023-11-19T10:43:21;15.60;63.70
44729;DHT22;30457;53.590;9.922;2023-11-19T10:47:48;15.60;63.80
44729;DHT22;30457;53.590;9.922;2023-11-19T10:52:18;15.60;63.90
44729;DHT22;30457;53.590;9.922;2023-11-19T10:56:53;15.50;64.20
44729;DHT22;30457;53.590;9.922;2023-11-19T11:01:20;15.60;64.20
44729;DHT22;30457;53.590;9.922;2023-11-19T11:05:50;15.60;64.30
44729;DHT22;30457;53.590;9.922;2023-11-19T11:10:18;15.60;64.40
44729;DHT22;30457;53.590;9.922;2023-11-19T11:14:47;15.60;64.30
44729;DHT22;30457;53.590;9.922;2023-11-19T11:19:14;15.60;64.10
44729;DHT22;30457;53.590;9.922;2023-11-19T11:38:06;15.70;64.10
44729;DHT22;30457;53.590;9.922;2023-11-19T11:42:33;15.80;63.70
44729;DHT22;30457;53.590;9.922;2023-11-19T11:46:59;15.80;63.50
44729;DHT22;30457;53.590;9.922;2023-11-19T11:56:11;15.70;63.80
44729;DHT22;30457;53.590;9.922;2023-11-19T12:00:40;15.70;63.70
44729;DHT22;30457;53.590;9.922;2023-11-19T12:05:07;15.70;64.60
44729;DHT22;30457;53.590;9.922;2023-11-19T12:09:33;15.70;64.20
44729;DHT22;30457;53.590;9.922;2023-11-19T12:13:59;15.70;64.40
44729;DHT22;30457;53.590;9.922;2023-11-19T12:18:29;15.80;64.30
44729;DHT22;30457;53.590;9.922;2023-11-19T12:22:56;15.80;63.80
44729;DHT22;30457;53.590;9.922;2023-11-19T12:27:22;15.80;63.90
44729;DHT22;30457;53.590;9.922;2023-11-19T12:31:54;15.90;63.90
44729;DHT22;30457;53.590;9.922;2023-11-19T12:36:20;15.90;63.40
44729;DHT22;30457;53.590;9.922;2023-11-19T12:40:46;15.90;63.00
44729;DHT22;30457;53.590;9.922;2023-11-19T12:45:12;15.90;63.00
44729;DHT22;30457;53.590;9.922;2023-11-19T12:49:38;15.90;62.90
44729;DHT22;30457;53.590;9.922;2023-11-19T12:54:04;15.90;63.00
44729;DHT22;30457;53.590;9.922;2023-11-19T12:58:34;15.90;63.20
44729;DHT22;30457;53.590;9.922;2023-11-19T13:03:01;15.90;63.30
44729;DHT22;30457;53.590;9.922;2023-11-19T13:07:26;15.90;63.30
44729;DHT22;30457;53.590;9.922;2023-11-19T13:11:53;15.90;63.40
44729;DHT22;30457;53.590;9.922;2023-11-19T13:16:19;15.90;63.30
44729;DHT22;30457;53.590;9.922;2023-11-19T13:20:44;16.00;63.20
44729;DHT22;30457;53.590;9.922;2023-11-19T13:25:10;16.10;63.20
44729;DHT22;30457;53.590;9.922;2023-11-19T13:29:36;16.00;62.90
44729;DHT22;30457;53.590;9.922;2023-11-19T13:34:01;16.00;62.60
44729;DHT22;30457;53.590;9.922;2023-11-19T13:38:27;16.00;62.50
44729;DHT22;30457;53.590;9.922;2023-11-19T13:42:53;16.00;62.30
44729;DHT22;30457;53.590;9.922;2023-11-19T13:47:18;16.00;61.90
44729;DHT22;30457;53.590;9.922;2023-11-19T13:51:44;16.00;61.90
44729;DHT22;30457;53.590;9.922;2023-11-19T13:56:10;16.00;62.30
44729;DHT22;30457;53.590;9.922;2023-11-19T14:00:36;16.00;62.10
44729;DHT22;30457;53.590;9.922;2023-11-19T14:05:03;16.00;62.40
44729;DHT22;30457;53.590;9.922;2023-11-19T14:09:29;16.00;62.30
44729;DHT22;30457;53.590;9.922;2023-11-19T14:13:57;16.00;61.90
44729;DHT22;30457;53.590;9.922;2023-11-19T14:18:22;16.00;62.20
44729;DHT22;30457;53.590;9.922;2023-11-19T14:22:57;16.00;62.10
44729;DHT22;30457;53.590;9.922;2023-11-19T14:27:23;16.00;62.40
44729;DHT22;30457;53.590;9.922;2023-11-19T14:31:48;16.00;62.30
44729;DHT22;30457;53.590;9.922;2023-11-19T14:36:14;15.90;62.30
44729;DHT22;30457;53.590;9.922;2023-11-19T14:40:39;15.90;62.50
44729;DHT22;30457;53.590;9.922;2023-11-19T14:45:06;15.80;62.70
44729;DHT22;30457;53.590;9.922;2023-11-19T14:54:58;15.80;63.40
44729;DHT22;30457;53.590;9.922;2023-11-19T14:59:23;15.70;62.20
44729;DHT22;30457;53.590;9.922;2023-11-19T15:03:49;15.70;61.80
44729;DHT22;30457;53.590;9.922;2023-11-19T15:08:14;15.60;61.30
44729;DHT22;30457;53.590;9.922;2023-11-19T15:12:41;15.50;61.00
44729;DHT22;30457;53.590;9.922;2023-11-19T15:17:07;15.40;60.90
44729;DHT22;30457;53.590;9.922;2023-11-19T15:21:34;15.30;60.90
44729;DHT22;30457;53.590;9.922;2023-11-19T15:25:59;15.10;60.90
44729;DHT22;30457;53.590;9.922;2023-11-19T15:30:25;15.00;61.30
44729;DHT22;30457;53.590;9.922;2023-11-19T15:34:51;15.00;61.70
44729;DHT22;30457;53.590;9.922;2023-11-19T15:39:17;14.90;61.90
44729;DHT22;30457;53.590;9.922;2023-11-19T15:43:43;14.90;62.10
44729;DHT22;30457;53.590;9.922;2023-11-19T15:48:09;14.90;62.30
44729;DHT22;30457;53.590;9.922;2023-11-19T15:52:34;14.90;62.50
44729;DHT22;30457;53.590;9.922;2023-11-19T15:57:00;14.90;62.80
44729;DHT22;30457;53.590;9.922;2023-11-19T16:01:27;14.90;63.20
44729;DHT22;30457;53.590;9.922;2023-11-19T16:05:54;14.90;63.70
44729;DHT22;30457;53.590;9.922;2023-11-19T16:10:19;14.90;63.70
44729;DHT22;30457;53.590;9.922;2023-11-19T16:14:45;14.90;63.90
44729;DHT22;30457;53.590;9.922;2023-11-19T16:19:10;14.90;64.00
44729;DHT22;30457;53.590;9.922;2023-11-19T16:23:36;14.90;64.10
44729;DHT22;30457;53.590;9.922;2023-11-19T16:28:02;14.90;64.10
44729;DHT22;30457;53.590;9.922;2023-11-19T16:32:27;14.90;64.10
44729;DHT22;30457;53.590;9.922;2023-11-19T16:36:53;14.90;65.20
44729;DHT22;30457;53.590;9.922;2023-11-19T16:41:19;14.90;64.20
44729;DHT22;30457;53.590;9.922;2023-11-19T16:45:50;14.90;64.10
44729;DHT22;30457;53.590;9.922;2023-11-19T16:50:16;14.90;64.30
44729;DHT22;30457;53.590;9.922;2023-11-19T16:54:41;14.80;64.20
44729;DHT22;30457;53.590;9.922;2023-11-19T16:59:07;14.80;64.30
44729;DHT22;30457;53.590;9.922;2023-11-19T17:03:32;14.80;64.00
44729;DHT22;30457;53.590;9.922;2023-11-19T17:08:00;14.80;63.80
44729;DHT22;30457;53.590;9.922;2023-11-19T17:12:25;14.80;63.90
44729;DHT22;30457;53.590;9.922;2023-11-19T17:16:51;14.70;63.80
44729;DHT22;30457;53.590;9.922;2023-11-19T17:21:17;14.70;63.70
44729;DHT22;30457;53.590;9.922;2023-11-19T17:25:43;14.70;63.80
44729;DHT22;30457;53.590;9.922;2023-11-19T17:30:08;14.70;63.90
44729;DHT22;30457;53.590;9.922;2023-11-19T17:34:34;14.60;63.90
44729;DHT22;30457;53.590;9.922;2023-11-19T17:39:00;14.70;63.80
44729;DHT22;30457;53.590;9.922;2023-11-19T17:43:25;14.60;63.60
44729;DHT22;30457;53.590;9.922;2023-11-19T17:47:51;14.60;63.50
44729;DHT22;30457;53.590;9.922;2023-11-19T17:52:20;14.60;63.50
44729;DHT22;30457;53.590;9.922;2023-11-19T17:56:46;14.60;63.50
44729;DHT22;30457;53.590;9.922;2023-11-19T18:01:12;14.60;63.70
44729;DHT22;30457;53.590;9.922;2023-11-19T18:05:37;14.60;63.70
44729;DHT22;30457;53.590;9.922;2023-11-19T18:10:07;14.50;63.70
44729;DHT22;30457;53.590;9.922;2023-11-19T18:14:33;14.50;63.80
44729;DHT22;30457;53.590;9.922;2023-11-19T18:18:59;14.50;63.90
44729;DHT22;30457;53.590;9.922;2023-11-19T18:23:24;14.50;64.00
44729;DHT22;30457;53.590;9.922;2023-11-19T18:27:50;14.50;64.10
44729;DHT22;30457;53.590;9.922;2023-11-19T18:32:16;14.50;64.30
44729;DHT22;30457;53.590;9.922;2023-11-19T18:36:41;14.50;64.40
44729;DHT22;30457;53.590;9.922;2023-11-19T18:41:07;14.50;64.50
44729;DHT22;30457;53.590;9.922;2023-11-19T18:45:33;14.50;64.60
44729;DHT22;30457;53.590;9.922;2023-11-19T18:49:59;14.50;64.60
44729;DHT22;30457;53.590;9.922;2023-11-19T18:54:25;14.50;64.80
44729;DHT22;30457;53.590;9.922;2023-11-19T18:58:51;14.50;64.90
44729;DHT22;30457;53.590;9.922;2023-11-19T19:03:16;14.50;64.90
44729;DHT22;30457;53.590;9.922;2023-11-19T19:07:47;14.50;65.00
44729;DHT22;30457;53.590;9.922;2023-11-19T19:12:12;14.60;65.10
44729;DHT22;30457;53.590;9.922;2023-11-19T19:16:41;14.60;65.10
44729;DHT22;30457;53.590;9.922;2023-11-19T19:21:06;14.60;65.30
44729;DHT22;30457;53.590;9.922;2023-11-19T19:25:32;14.60;65.30
44729;DHT22;30457;53.590;9.922;2023-11-19T19:29:58;14.60;65.20
44729;DHT22;30457;53.590;9.922;2023-11-19T19:34:23;14.60;65.30
44729;DHT22;30457;53.590;9.922;2023-11-19T19:38:51;14.60;65.30
44729;DHT22;30457;53.590;9.922;2023-11-19T19:43:17;14.60;65.40
44729;DHT22;30457;53.590;9.922;2023-11-19T19:47:42;14.70;65.50
44729;DHT22;30457;53.590;9.922;2023-11-19T19:52:08;14.70;65.50
44729;DHT22;30457;53.590;9.922;2023-11-19T19:56:33;14.60;65.40
44729;DHT22;30457;53.590;9.922;2023-11-19T20:00:59;14.70;65.40
44729;DHT22;30457;53.590;9.922;2023-11-19T20:05:28;14.70;65.40
44729;DHT22;30457;53.590;9.922;2023-11-19T20:09:54;14.70;65.40
44729;DHT22;30457;53.590;9.922;2023-11-19T20:14:19;14.70;65.40
44729;DHT22;30457;53.590;9.922;2023-11-19T20:18:48;14.70;65.40
44729;DHT22;30457;53.590;9.922;2023-11-19T20:23:13;14.70;65.40
44729;DHT22;30457;53.590;9.922;2023-11-19T20:27:39;14.70;65.40
44729;DHT22;30457;53.590;9.922;2023-11-19T20:32:06;14.70;65.40
44729;DHT22;30457;53.590;9.922;2023-11-19T20:36:31;14.70;65.50
44729;DHT22;30457;53.590;9.922;2023-11-19T20:40:57;14.70;65.50
44729;DHT22;30457;53.590;9.922;2023-11-19T20:45:24;14.80;65.50
44729;DHT22;30457;53.590;9.922;2023-11-19T20:49:52;14.70;65.50
44729;DHT22;30457;53.590;9.922;2023-11-19T20:54:18;14.70;65.50
44729;DHT22;30457;53.590;9.922;2023-11-19T20:58:43;14.70;65.60
44729;DHT22;30457;53.590;9.922;2023-11-19T21:03:09;14.70;65.80
44729;DHT22;30457;53.590;9.922;2023-11-19T21:07:35;14.70;65.80
44729;DHT22;30457;53.590;9.922;2023-11-19T21:12:00;14.70;65.80
44729;DHT22;30457;53.590;9.922;2023-11-19T21:16:26;14.70;65.70
44729;DHT22;30457;53.590;9.922;2023-11-19T21:20:51;14.70;65.70
44729;DHT22;30457;53.590;9.922;2023-11-19T21:25:17;14.70;65.80
44729;DHT22;30457;53.590;9.922;2023-11-19T21:29:42;14.70;65.90
44729;DHT22;30457;53.590;9.922;2023-11-19T21:34:08;14.70;66.00
44729;DHT22;30457;53.590;9.922;2023-11-19T21:38:34;14.70;66.00
44729;DHT22;30457;53.590;9.922;2023-11-19T21:42:59;14.70;66.10
44729;DHT22;30457;53.590;9.922;2023-11-19T21:47:25;14.70;66.00
44729;DHT22;30457;53.590;9.922;2023-11-19T21:51:50;14.70;66.00
44729;DHT22;30457;53.590;9.922;2023-11-19T21:56:16;14.80;65.90
44729;DHT22;30457;53.590;9.922;2023-11-19T22:00:42;14.80;65.80
44729;DHT22;30457;53.590;9.922;2023-11-19T22:05:08;14.80;65.60
44729;DHT22;30457;53.590;9.922;2023-11-19T22:09:34;14.80;65.60
44729;DHT22;30457;53.590;9.922;2023-11-19T22:14:00;14.80;65.70
44729;DHT22;30457;53.590;9.922;2023-11-19T22:18:25;14.80;65.70
44729;DHT22;30457;53.590;9.922;2023-11-19T22:22:51;14.80;65.70
44729;DHT22;30457;53.590;9.922;2023-11-19T22:27:17;14.80;65.80
44729;DHT22;30457;53.590;9.922;2023-11-19T22:31:42;14.80;65.90
44729;DHT22;30457;53.590;9.922;2023-11-19T22:36:08;14.80;65.90
44729;DHT22;30457;53.590;9.922;2023-11-19T22:40:35;14.80;65.90
44729;DHT22;30457;53.590;9.922;2023-11-19T22:45:01;14.80;65.80
44729;DHT22;30457;53.590;9.922;2023-11-19T22:49:27;14.90;65.80
44729;DHT22;30457;53.590;9.922;2023-11-19T22:53:53;14.90;65.80
44729;DHT22;30457;53.590;9.922;2023-11-19T22:58:21;14.90;65.70
44729;DHT22;30457;53.590;9.922;2023-11-19T23:02:47;14.90;65.70
44729;DHT22;30457;53.590;9.922;2023-11-19T23:07:12;14.90;65.80
44729;DHT22;30457;53.590;9.922;2023-11-19T23:11:38;14.90;65.80
44729;DHT22;30457;53.590;9.922;2023-11-19T23:16:04;14.90;65.80
44729;DHT22;30457;53.590;9.922;2023-11-19T23:20:29;14.90;65.80
44729;DHT22;30457;53.590;9.922;2023-11-19T23:24:55;14.90;65.80
44729;DHT22;30457;53.590;9.922;2023-11-19T23:29:20;14.90;65.80
44729;DHT22;30457;53.590;9.922;2023-11-19T23:33:46;14.90;65.80
44729;DHT22;30457;53.590;9.922;2023-11-19T23:38:11;14.90;65.70
44729;DHT22;30457;53.590;9.922;2023-11-19T23:42:37;15.00;65.80
44729;DHT22;30457;53.590;9.922;2023-11-19T23:47:03;15.00;65.70
44729;DHT22;30457;53.590;9.922;2023-11-19T23:51:28;15.00;65.70
44729;DHT22;30457;53.590;9.922;2023-11-19T23:55:54;15.00;65.60
